createdAt,value
2023-05-10T00:00:09.687Z,25.52
2023-05-10T00:00:19.709Z,25.53
2023-05-10T00:00:29.705Z,25.53
2023-05-10T00:00:39.712Z,25.53
2023-05-10T00:00:49.716Z,25.52
2023-05-10T00:00:59.837Z,25.53
2023-05-10T00:01:09.855Z,25.52
2023-05-10T00:01:19.904Z,25.53
2023-05-10T00:01:29.930Z,25.53
2023-05-10T00:01:39.964Z,25.53
2023-05-10T00:01:50.319Z,25.52
2023-05-10T00:02:00.338Z,25.53
2023-05-10T00:02:10.383Z,25.52
2023-05-10T00:02:20.460Z,25.53
2023-05-10T00:02:30.515Z,25.53
2023-05-10T00:02:40.767Z,25.52
2023-05-10T00:02:50.691Z,25.52
2023-05-10T00:03:00.695Z,25.52
2023-05-10T00:03:10.730Z,25.52
2023-05-10T00:03:20.776Z,25.53
2023-05-10T00:03:30.810Z,25.53
2023-05-10T00:03:40.794Z,25.52
2023-05-10T00:03:50.901Z,25.52
2023-05-10T00:04:00.964Z,25.53
2023-05-10T00:04:11.049Z,25.53
2023-05-10T00:04:21.129Z,25.53
2023-05-10T00:04:31.136Z,25.54
2023-05-10T00:04:41.151Z,25.53
2023-05-10T00:04:51.167Z,25.54
2023-05-10T00:05:01.189Z,25.54
2023-05-10T00:05:11.188Z,25.54
2023-05-10T00:05:21.214Z,25.54
2023-05-10T00:05:31.210Z,25.54
2023-05-10T00:05:41.209Z,25.54
2023-05-10T00:05:51.601Z,25.54
2023-05-10T00:06:01.615Z,25.53
2023-05-10T00:06:11.747Z,25.54
2023-05-10T00:06:22.001Z,25.53
2023-05-10T00:06:32.005Z,25.53
2023-05-10T00:06:42.020Z,25.53
2023-05-10T00:06:52.026Z,25.52
2023-05-10T00:07:02.037Z,25.53
2023-05-10T00:07:12.046Z,25.53
2023-05-10T00:07:22.187Z,25.52
2023-05-10T00:07:32.116Z,25.52
2023-05-10T00:07:42.113Z,25.52
2023-05-10T00:07:52.118Z,25.52
2023-05-10T00:08:02.143Z,25.52
2023-05-10T00:08:12.153Z,25.52
2023-05-10T00:08:32.283Z,25.52
2023-05-10T00:08:42.318Z,25.52
2023-05-10T00:08:52.332Z,25.52
2023-05-10T00:09:02.340Z,25.52
2023-05-10T00:09:12.600Z,25.53
2023-05-10T00:09:22.626Z,25.53
2023-05-10T00:09:32.620Z,25.53
2023-05-10T00:09:42.627Z,25.53
2023-05-10T00:09:52.635Z,25.52
2023-05-10T00:10:02.665Z,25.53
2023-05-10T00:10:12.662Z,25.53
2023-05-10T00:10:22.672Z,25.52
2023-05-10T00:10:32.673Z,25.52
2023-05-10T00:10:42.699Z,25.52
2023-05-10T00:10:52.700Z,25.52
2023-05-10T00:11:02.727Z,25.52
2023-05-10T00:11:12.745Z,25.52
2023-05-10T00:11:23.244Z,25.52
2023-05-10T00:11:32.988Z,25.52
2023-05-10T00:11:42.991Z,25.52
2023-05-10T00:11:53.108Z,25.53
2023-05-10T00:12:03.366Z,25.52
2023-05-10T00:12:13.514Z,25.54
2023-05-10T00:12:23.509Z,25.53
2023-05-10T00:12:33.772Z,25.53
2023-05-10T00:12:43.806Z,25.54
2023-05-10T00:12:53.823Z,25.54
2023-05-10T00:13:03.897Z,25.54
2023-05-10T00:13:13.968Z,25.54
2023-05-10T00:13:24.151Z,25.54
2023-05-10T00:13:34.074Z,25.53
2023-05-10T00:13:44.089Z,25.54
2023-05-10T00:13:54.215Z,25.53
2023-05-10T00:14:04.216Z,25.53
2023-05-10T00:14:14.494Z,25.53
2023-05-10T00:14:24.508Z,25.52
2023-05-10T00:14:34.520Z,25.52
2023-05-10T00:14:44.533Z,25.52
2023-05-10T00:14:54.559Z,25.51
2023-05-10T00:15:04.561Z,25.51
2023-05-10T00:15:14.699Z,25.52
2023-05-10T00:15:24.703Z,25.52
2023-05-10T00:15:34.719Z,25.52
2023-05-10T00:15:44.722Z,25.51
2023-05-10T00:15:54.972Z,25.53
2023-05-10T00:16:05.017Z,25.53
2023-05-10T00:16:15.091Z,25.52
2023-05-10T00:16:25.168Z,25.52
2023-05-10T00:16:35.218Z,25.52
2023-05-10T00:16:45.260Z,25.52
2023-05-10T00:16:55.361Z,25.52
2023-05-10T00:17:05.393Z,25.52
2023-05-10T00:17:15.523Z,25.51
2023-05-10T00:17:25.563Z,25.52
2023-05-10T00:17:35.809Z,25.52
2023-05-10T00:17:45.876Z,25.52
2023-05-10T00:17:55.911Z,25.51
2023-05-10T00:18:06.256Z,25.52
2023-05-10T00:18:16.270Z,25.52
2023-05-10T00:18:26.281Z,25.52
2023-05-10T00:18:36.535Z,25.52
2023-05-10T00:18:46.545Z,25.51
2023-05-10T00:18:56.552Z,25.52
2023-05-10T00:19:06.553Z,25.51
2023-05-10T00:19:16.577Z,25.52
2023-05-10T00:19:26.572Z,25.52
2023-05-10T00:19:36.583Z,25.51
2023-05-10T00:19:46.595Z,25.50
2023-05-10T00:19:56.621Z,25.50
2023-05-10T00:20:06.608Z,25.50
2023-05-10T00:20:16.882Z,25.50
2023-05-10T00:20:26.680Z,25.50
2023-05-10T00:20:36.671Z,25.49
2023-05-10T00:20:46.688Z,25.49
2023-05-10T00:20:56.694Z,25.51
2023-05-10T00:21:06.702Z,25.51
2023-05-10T00:21:16.818Z,25.51
2023-05-10T00:21:26.818Z,25.51
2023-05-10T00:21:36.828Z,25.52
2023-05-10T00:21:46.838Z,25.51
2023-05-10T00:21:56.832Z,25.52
2023-05-10T00:22:07.103Z,25.52
2023-05-10T00:22:17.111Z,25.52
2023-05-10T00:22:27.104Z,25.52
2023-05-10T00:22:37.498Z,25.52
2023-05-10T00:22:47.508Z,25.52
2023-05-10T00:22:57.507Z,25.52
2023-05-10T00:23:07.520Z,25.52
2023-05-10T00:23:17.534Z,25.52
2023-05-10T00:23:27.545Z,25.52
2023-05-10T00:23:37.559Z,25.52
2023-05-10T00:23:47.595Z,25.52
2023-05-10T00:23:57.590Z,25.51
2023-05-10T00:24:07.590Z,25.52
2023-05-10T00:24:17.990Z,25.52
2023-05-10T00:24:28.013Z,25.52
2023-05-10T00:24:38.010Z,25.53
2023-05-10T00:24:48.017Z,25.53
2023-05-10T00:24:58.024Z,25.53
2023-05-10T00:25:08.065Z,25.53
2023-05-10T00:25:18.056Z,25.54
2023-05-10T00:25:28.060Z,25.53
2023-05-10T00:25:38.182Z,25.54
2023-05-10T00:25:48.184Z,25.54
2023-05-10T00:25:58.444Z,25.54
2023-05-10T00:26:08.470Z,25.54
2023-05-10T00:26:18.468Z,25.54
2023-05-10T00:26:28.481Z,25.54
2023-05-10T00:26:38.498Z,25.55
2023-05-10T00:26:48.518Z,25.54
2023-05-10T00:26:58.516Z,25.54
2023-05-10T00:27:08.522Z,25.55
2023-05-10T00:27:18.557Z,25.55
2023-05-10T00:27:28.533Z,25.55
2023-05-10T00:27:38.915Z,25.55
2023-05-10T00:27:48.909Z,25.55
2023-05-10T00:27:59.028Z,25.55
2023-05-10T00:28:09.291Z,25.55
2023-05-10T00:28:19.292Z,25.55
2023-05-10T00:28:29.297Z,25.55
2023-05-10T00:28:39.669Z,25.55
2023-05-10T00:28:49.683Z,25.55
2023-05-10T00:28:59.686Z,25.55
2023-05-10T00:29:09.737Z,25.56
2023-05-10T00:29:19.724Z,25.55
2023-05-10T00:29:29.730Z,25.55
2023-05-10T00:29:39.853Z,25.55
2023-05-10T00:29:49.865Z,25.56
2023-05-10T00:29:59.984Z,25.56
2023-05-10T00:30:10.000Z,25.56
2023-05-10T00:30:20.144Z,25.56
2023-05-10T00:30:30.158Z,25.56
2023-05-10T00:30:40.155Z,25.56
2023-05-10T00:30:50.161Z,25.56
2023-05-10T00:31:00.169Z,25.56
2023-05-10T00:31:10.171Z,25.55
2023-05-10T00:31:20.190Z,25.55
2023-05-10T00:31:30.205Z,25.55
2023-05-10T00:31:40.234Z,25.55
2023-05-10T00:31:50.295Z,25.55
2023-05-10T00:32:00.692Z,25.54
2023-05-10T00:32:10.721Z,25.55
2023-05-10T00:32:20.824Z,25.54
2023-05-10T00:32:30.844Z,25.54
2023-05-10T00:32:40.910Z,25.54
2023-05-10T00:32:51.036Z,25.54
2023-05-10T00:33:00.953Z,25.54
2023-05-10T00:33:11.026Z,25.55
2023-05-10T00:33:21.029Z,25.54
2023-05-10T00:33:31.038Z,25.54
2023-05-10T00:33:41.296Z,25.54
2023-05-10T00:33:51.287Z,25.54
2023-05-10T00:34:01.432Z,25.54
2023-05-10T00:34:11.676Z,25.53
2023-05-10T00:34:21.682Z,25.53
2023-05-10T00:34:31.697Z,25.53
2023-05-10T00:34:41.688Z,25.54
2023-05-10T00:34:51.721Z,25.53
2023-05-10T00:35:01.694Z,25.53
2023-05-10T00:35:11.710Z,25.54
2023-05-10T00:35:21.714Z,25.54
2023-05-10T00:35:31.728Z,25.54
2023-05-10T00:35:41.732Z,25.54
2023-05-10T00:35:51.731Z,25.54
2023-05-10T00:36:01.856Z,25.54
2023-05-10T00:36:11.878Z,25.54
2023-05-10T00:36:21.885Z,25.53
2023-05-10T00:36:31.887Z,25.54
2023-05-10T00:36:41.898Z,25.53
2023-05-10T00:36:51.919Z,25.53
2023-05-10T00:37:02.163Z,25.53
2023-05-10T00:37:12.164Z,25.53
2023-05-10T00:37:22.166Z,25.53
2023-05-10T00:37:32.170Z,25.52
2023-05-10T00:37:42.188Z,25.53
2023-05-10T00:37:52.189Z,25.52
2023-05-10T00:38:02.217Z,25.52
2023-05-10T00:38:12.220Z,25.53
2023-05-10T00:38:22.238Z,25.53
2023-05-10T00:38:32.228Z,25.52
2023-05-10T00:38:42.617Z,25.52
2023-05-10T00:38:52.616Z,25.53
2023-05-10T00:39:02.728Z,25.52
2023-05-10T00:39:12.991Z,25.52
2023-05-10T00:39:23.105Z,25.51
2023-05-10T00:39:33.108Z,25.51
2023-05-10T00:39:43.386Z,25.52
2023-05-10T00:39:53.381Z,25.50
2023-05-10T00:40:03.383Z,25.51
2023-05-10T00:40:13.484Z,25.50
2023-05-10T00:40:23.510Z,25.49
2023-05-10T00:40:33.522Z,25.49
2023-05-10T00:40:43.528Z,25.49
2023-05-10T00:40:53.540Z,25.49
2023-05-10T00:41:03.555Z,25.48
2023-05-10T00:41:13.561Z,25.48
2023-05-10T00:41:23.566Z,25.48
2023-05-10T00:41:33.584Z,25.48
2023-05-10T00:41:43.588Z,25.48
2023-05-10T00:41:53.588Z,25.49
2023-05-10T00:42:03.612Z,25.48
2023-05-10T00:42:13.608Z,25.48
2023-05-10T00:42:23.653Z,25.48
2023-05-10T00:42:33.632Z,25.48
2023-05-10T00:42:43.649Z,25.47
2023-05-10T00:42:53.670Z,25.47
2023-05-10T00:43:03.655Z,25.47
2023-05-10T00:43:13.692Z,25.47
2023-05-10T00:43:23.686Z,25.47
2023-05-10T00:43:33.696Z,25.47
2023-05-10T00:43:43.701Z,25.47
2023-05-10T00:43:53.710Z,25.48
2023-05-10T00:44:03.722Z,25.47
2023-05-10T00:44:13.725Z,25.47
2023-05-10T00:44:23.849Z,25.47
2023-05-10T00:44:33.864Z,25.47
2023-05-10T00:44:43.865Z,25.46
2023-05-10T00:44:54.124Z,25.46
2023-05-10T00:45:04.124Z,25.46
2023-05-10T00:45:14.134Z,25.46
2023-05-10T00:45:24.132Z,25.46
2023-05-10T00:45:34.156Z,25.46
2023-05-10T00:45:44.198Z,25.46
2023-05-10T00:45:54.222Z,25.46
2023-05-10T00:46:04.271Z,25.46
2023-05-10T00:46:14.306Z,25.45
2023-05-10T00:46:24.421Z,25.45
2023-05-10T00:46:34.563Z,25.44
2023-05-10T00:46:44.533Z,25.45
2023-05-10T00:46:54.525Z,25.44
2023-05-10T00:47:04.518Z,25.44
2023-05-10T00:47:14.648Z,25.44
2023-05-10T00:47:24.675Z,25.43
2023-05-10T00:47:34.723Z,25.43
2023-05-10T00:47:44.772Z,25.43
2023-05-10T00:47:54.895Z,25.42
2023-05-10T00:48:05.001Z,25.42
2023-05-10T00:48:14.916Z,25.42
2023-05-10T00:48:25.036Z,25.41
2023-05-10T00:48:35.042Z,25.41
2023-05-10T00:48:45.043Z,25.42
2023-05-10T00:48:55.312Z,25.41
2023-05-10T00:49:05.316Z,25.41
2023-05-10T00:49:15.324Z,25.41
2023-05-10T00:49:25.336Z,25.41
2023-05-10T00:49:35.375Z,25.41
2023-05-10T00:49:45.380Z,25.41
2023-05-10T00:49:55.379Z,25.40
2023-05-10T00:50:05.383Z,25.40
2023-05-10T00:50:15.602Z,25.40
2023-05-10T00:50:25.400Z,25.40
2023-05-10T00:50:35.406Z,25.39
2023-05-10T00:50:45.420Z,25.39
2023-05-10T00:50:55.422Z,25.40
2023-05-10T00:51:05.440Z,25.38
2023-05-10T00:51:15.552Z,25.38
2023-05-10T00:51:25.561Z,25.39
2023-05-10T00:51:35.566Z,25.39
2023-05-10T00:51:45.851Z,25.38
2023-05-10T00:51:55.848Z,25.38
2023-05-10T00:52:05.863Z,25.37
2023-05-10T00:52:16.253Z,25.37
2023-05-10T00:52:26.253Z,25.37
2023-05-10T00:52:36.259Z,25.37
2023-05-10T00:52:46.270Z,25.37
2023-05-10T00:52:56.399Z,25.37
2023-05-10T00:53:06.407Z,25.37
2023-05-10T00:53:16.403Z,25.37
2023-05-10T00:53:26.413Z,25.37
2023-05-10T00:53:36.530Z,25.37
2023-05-10T00:53:46.561Z,25.36
2023-05-10T00:53:56.697Z,25.36
2023-05-10T00:54:06.695Z,25.36
2023-05-10T00:54:16.697Z,25.36
2023-05-10T00:54:26.717Z,25.35
2023-05-10T00:54:36.716Z,25.35
2023-05-10T00:54:46.712Z,25.35
2023-05-10T00:54:56.843Z,25.35
2023-05-10T00:55:06.850Z,25.35
2023-05-10T00:55:16.851Z,25.34
2023-05-10T00:55:26.855Z,25.34
2023-05-10T00:55:37.104Z,25.35
2023-05-10T00:55:47.103Z,25.34
2023-05-10T00:55:57.136Z,25.34
2023-05-10T00:56:07.138Z,25.34
2023-05-10T00:56:17.151Z,25.34
2023-05-10T00:56:27.148Z,25.34
2023-05-10T00:56:37.168Z,25.33
2023-05-10T00:56:47.179Z,25.34
2023-05-10T00:56:57.187Z,25.33
2023-05-10T00:57:07.186Z,25.32
2023-05-10T00:57:17.578Z,25.32
2023-05-10T00:57:27.598Z,25.31
2023-05-10T00:57:37.586Z,25.32
2023-05-10T00:57:47.594Z,25.32
2023-05-10T00:57:57.596Z,25.31
2023-05-10T00:58:07.604Z,25.31
2023-05-10T00:58:17.726Z,25.30
2023-05-10T00:58:27.739Z,25.30
2023-05-10T00:58:37.736Z,25.31
2023-05-10T00:58:47.730Z,25.31
2023-05-10T00:58:57.995Z,25.31
2023-05-10T00:59:07.990Z,25.30
2023-05-10T00:59:18.116Z,25.31
2023-05-10T00:59:28.380Z,25.30
2023-05-10T00:59:38.379Z,25.30
2023-05-10T00:59:48.387Z,25.30
2023-05-10T00:59:58.396Z,25.30
2023-05-10T01:00:08.406Z,25.29
2023-05-10T01:00:18.614Z,25.29
2023-05-10T01:00:28.542Z,25.29
2023-05-10T01:00:38.664Z,25.29
2023-05-10T01:00:48.671Z,25.29
2023-05-10T01:00:58.697Z,25.29
2023-05-10T01:01:08.847Z,25.29
2023-05-10T01:01:18.931Z,25.28
2023-05-10T01:01:29.015Z,25.29
2023-05-10T01:01:39.311Z,25.28
2023-05-10T01:01:49.414Z,25.27
2023-05-10T01:01:59.331Z,25.27
2023-05-10T01:02:09.357Z,25.27
2023-05-10T01:02:19.454Z,25.26
2023-05-10T01:02:29.480Z,25.26
2023-05-10T01:02:39.633Z,25.25
2023-05-10T01:02:49.667Z,25.25
2023-05-10T01:02:59.642Z,25.25
2023-05-10T01:03:09.781Z,25.26
2023-05-10T01:03:20.137Z,25.25
2023-05-10T01:03:30.087Z,25.24
2023-05-10T01:03:40.155Z,25.24
2023-05-10T01:03:50.426Z,25.24
2023-05-10T01:04:00.556Z,25.25
2023-05-10T01:04:10.617Z,25.25
2023-05-10T01:04:20.878Z,25.24
2023-05-10T01:04:30.922Z,25.23
2023-05-10T01:04:40.971Z,25.23
2023-05-10T01:04:51.076Z,25.24
2023-05-10T01:05:01.122Z,25.22
2023-05-10T01:05:11.178Z,25.23
2023-05-10T01:05:21.225Z,25.23
2023-05-10T01:05:31.256Z,25.23
2023-05-10T01:05:41.371Z,25.23
2023-05-10T01:05:51.372Z,25.23
2023-05-10T01:06:01.635Z,25.23
2023-05-10T01:06:11.628Z,25.23
2023-05-10T01:06:21.638Z,25.22
2023-05-10T01:06:31.650Z,25.23
2023-05-10T01:06:41.666Z,25.22
2023-05-10T01:06:51.678Z,25.22
2023-05-10T01:07:01.701Z,25.22
2023-05-10T01:07:11.711Z,25.22
2023-05-10T01:07:21.710Z,25.22
2023-05-10T01:07:31.714Z,25.22
2023-05-10T01:07:41.716Z,25.22
2023-05-10T01:07:51.729Z,25.22
2023-05-10T01:08:01.743Z,25.21
2023-05-10T01:08:11.750Z,25.21
2023-05-10T01:08:21.759Z,25.21
2023-05-10T01:08:31.758Z,25.22
2023-05-10T01:08:41.767Z,25.22
2023-05-10T01:08:51.764Z,25.21
2023-05-10T01:09:01.887Z,25.21
2023-05-10T01:09:11.886Z,25.20
2023-05-10T01:09:22.019Z,25.20
2023-05-10T01:09:32.019Z,25.20
2023-05-10T01:09:42.138Z,25.20
2023-05-10T01:09:52.146Z,25.20
2023-05-10T01:10:02.179Z,25.20
2023-05-10T01:10:12.175Z,25.19
2023-05-10T01:10:22.179Z,25.19
2023-05-10T01:10:32.188Z,25.19
2023-05-10T01:10:42.189Z,25.19
2023-05-10T01:10:52.195Z,25.19
2023-05-10T01:11:02.232Z,25.19
2023-05-10T01:11:12.241Z,25.18
2023-05-10T01:11:22.243Z,25.19
2023-05-10T01:11:32.250Z,25.17
2023-05-10T01:11:42.263Z,25.17
2023-05-10T01:11:52.353Z,25.18
2023-05-10T01:12:02.395Z,25.18
2023-05-10T01:12:12.414Z,25.17
2023-05-10T01:12:22.464Z,25.17
2023-05-10T01:12:32.524Z,25.17
2023-05-10T01:12:42.591Z,25.17
2023-05-10T01:12:52.855Z,25.16
2023-05-10T01:13:02.903Z,25.17
2023-05-10T01:13:12.903Z,25.16
2023-05-10T01:13:22.990Z,25.16
2023-05-10T01:13:33.030Z,25.15
2023-05-10T01:13:43.041Z,25.15
2023-05-10T01:13:53.042Z,25.16
2023-05-10T01:14:03.161Z,25.15
2023-05-10T01:14:13.164Z,25.15
2023-05-10T01:14:23.287Z,25.14
2023-05-10T01:14:33.433Z,25.14
2023-05-10T01:14:43.421Z,25.14
2023-05-10T01:14:53.419Z,25.14
2023-05-10T01:15:03.813Z,25.14
2023-05-10T01:15:13.808Z,25.14
2023-05-10T01:15:23.949Z,25.14
2023-05-10T01:15:34.364Z,25.14
2023-05-10T01:15:44.333Z,25.13
2023-05-10T01:15:54.351Z,25.13
2023-05-10T01:16:04.462Z,25.13
2023-05-10T01:16:14.391Z,25.13
2023-05-10T01:16:24.462Z,25.13
2023-05-10T01:16:34.544Z,25.13
2023-05-10T01:16:44.666Z,25.12
2023-05-10T01:16:54.677Z,25.12
2023-05-10T01:17:04.677Z,25.12
2023-05-10T01:17:14.686Z,25.12
2023-05-10T01:17:24.734Z,25.13
2023-05-10T01:17:34.768Z,25.12
2023-05-10T01:17:44.859Z,25.13
2023-05-10T01:17:54.954Z,25.12
2023-05-10T01:18:04.975Z,25.12
2023-05-10T01:18:14.977Z,25.12
2023-05-10T01:18:25.359Z,25.12
2023-05-10T01:18:35.356Z,25.11
2023-05-10T01:18:45.485Z,25.11
2023-05-10T01:18:55.739Z,25.12
2023-05-10T01:19:05.857Z,25.12
2023-05-10T01:19:15.929Z,25.11
2023-05-10T01:19:26.174Z,25.12
2023-05-10T01:19:36.179Z,25.11
2023-05-10T01:19:46.302Z,25.11
2023-05-10T01:19:56.554Z,25.10
2023-05-10T01:20:06.563Z,25.11
2023-05-10T01:20:16.841Z,25.11
2023-05-10T01:20:26.945Z,25.10
2023-05-10T01:20:36.946Z,25.10
2023-05-10T01:20:47.067Z,25.10
2023-05-10T01:20:57.337Z,25.11
2023-05-10T01:21:07.353Z,25.10
2023-05-10T01:21:17.356Z,25.10
2023-05-10T01:21:27.735Z,25.09
2023-05-10T01:21:37.763Z,25.10
2023-05-10T01:21:47.750Z,25.09
2023-05-10T01:21:57.761Z,25.09
2023-05-10T01:22:07.784Z,25.09
2023-05-10T01:22:17.791Z,25.09
2023-05-10T01:22:27.795Z,25.09
2023-05-10T01:22:37.810Z,25.09
2023-05-10T01:22:47.815Z,25.08
2023-05-10T01:22:57.819Z,25.08
2023-05-10T01:23:07.838Z,25.09
2023-05-10T01:23:17.890Z,25.08
2023-05-10T01:23:27.890Z,25.08
2023-05-10T01:23:37.892Z,25.07
2023-05-10T01:23:47.922Z,25.08
2023-05-10T01:23:57.931Z,25.07
2023-05-10T01:24:08.051Z,25.08
2023-05-10T01:24:18.310Z,25.06
2023-05-10T01:24:28.313Z,25.07
2023-05-10T01:24:38.314Z,25.06
2023-05-10T01:24:48.337Z,25.06
2023-05-10T01:24:58.354Z,25.06
2023-05-10T01:25:08.348Z,25.06
2023-05-10T01:25:18.364Z,25.06
2023-05-10T01:25:28.374Z,25.06
2023-05-10T01:25:38.389Z,25.05
2023-05-10T01:25:48.389Z,25.05
2023-05-10T01:25:58.396Z,25.06
2023-05-10T01:26:08.422Z,25.05
2023-05-10T01:26:18.426Z,25.05
2023-05-10T01:26:28.434Z,25.05
2023-05-10T01:26:38.442Z,25.05
2023-05-10T01:26:48.452Z,25.05
2023-05-10T01:26:58.459Z,25.05
2023-05-10T01:27:08.536Z,25.05
2023-05-10T01:27:18.547Z,25.05
2023-05-10T01:27:28.577Z,25.04
2023-05-10T01:27:38.601Z,25.04
2023-05-10T01:27:48.582Z,25.05
2023-05-10T01:27:58.580Z,25.04
2023-05-10T01:28:08.585Z,25.04
2023-05-10T01:28:18.584Z,25.04
2023-05-10T01:28:28.707Z,25.04
2023-05-10T01:28:38.716Z,25.04
2023-05-10T01:28:48.736Z,25.04
2023-05-10T01:28:58.753Z,25.04
2023-05-10T01:29:08.747Z,25.04
2023-05-10T01:29:18.761Z,25.04
2023-05-10T01:29:29.008Z,25.04
2023-05-10T01:29:39.018Z,25.03
2023-05-10T01:29:58.174Z,25.03
2023-05-10T01:30:14.135Z,24.97
2023-05-10T01:30:14.669Z,24.93
2023-05-10T01:30:19.141Z,24.90
2023-05-10T01:30:29.160Z,24.94
2023-05-10T01:30:39.167Z,24.96
2023-05-10T01:30:49.275Z,24.97
2023-05-10T01:30:59.302Z,24.97
2023-05-10T01:31:09.351Z,24.98
2023-05-10T01:31:19.441Z,24.98
2023-05-10T01:31:29.483Z,24.99
2023-05-10T01:31:39.832Z,24.99
2023-05-10T01:31:49.880Z,24.99
2023-05-10T01:31:59.755Z,24.99
2023-05-10T01:32:09.754Z,24.99
2023-05-10T01:32:19.874Z,24.99
2023-05-10T01:32:29.906Z,24.99
2023-05-10T01:32:39.960Z,25.00
2023-05-10T01:32:49.970Z,25.00
2023-05-10T01:32:59.983Z,24.99
2023-05-10T01:33:09.984Z,25.00
2023-05-10T01:33:20.233Z,25.00
2023-05-10T01:33:30.244Z,25.00
2023-05-10T01:33:40.243Z,25.00
2023-05-10T01:33:50.254Z,25.00
2023-05-10T01:34:00.374Z,25.00
2023-05-10T01:34:10.377Z,25.00
2023-05-10T01:34:20.494Z,25.01
2023-05-10T01:34:30.509Z,25.00
2023-05-10T01:34:40.642Z,25.00
2023-05-10T01:34:50.654Z,24.99
2023-05-10T01:35:00.670Z,24.99
2023-05-10T01:35:10.674Z,25.00
2023-05-10T01:35:20.709Z,25.00
2023-05-10T01:35:30.693Z,24.99
2023-05-10T01:35:40.836Z,24.99
2023-05-10T01:35:50.824Z,24.99
2023-05-10T01:36:00.945Z,24.99
2023-05-10T01:36:10.955Z,25.00
2023-05-10T01:36:20.958Z,24.98
2023-05-10T01:36:30.963Z,24.99
2023-05-10T01:36:41.086Z,24.98
2023-05-10T01:36:51.082Z,24.98
2023-05-10T01:37:01.091Z,24.99
2023-05-10T01:37:11.105Z,24.98
2023-05-10T01:37:21.114Z,24.99
2023-05-10T01:37:31.110Z,24.98
2023-05-10T01:37:41.234Z,24.99
2023-05-10T01:37:51.246Z,24.96
2023-05-10T01:38:01.249Z,24.97
2023-05-10T01:38:11.250Z,24.98
2023-05-10T01:38:21.505Z,24.97
2023-05-10T01:38:31.515Z,24.97
2023-05-10T01:38:41.508Z,24.96
2023-05-10T01:38:51.533Z,24.97
2023-05-10T01:39:01.531Z,24.97
2023-05-10T01:39:11.536Z,24.98
2023-05-10T01:39:21.659Z,24.97
2023-05-10T01:39:31.668Z,24.98
2023-05-10T01:39:41.670Z,24.97
2023-05-10T01:39:51.675Z,24.98
2023-05-10T01:40:01.935Z,24.97
2023-05-10T01:40:11.923Z,24.98
2023-05-10T01:40:22.041Z,24.97
2023-05-10T01:40:32.316Z,24.97
2023-05-10T01:40:42.332Z,24.96
2023-05-10T01:40:52.330Z,24.96
2023-05-10T01:41:02.717Z,24.96
2023-05-10T01:41:12.725Z,24.95
2023-05-10T01:41:22.727Z,24.96
2023-05-10T01:41:32.733Z,24.95
2023-05-10T01:41:42.755Z,24.95
2023-05-10T01:41:52.766Z,24.95
2023-05-10T01:42:02.764Z,24.94
2023-05-10T01:42:12.788Z,24.96
2023-05-10T01:42:22.789Z,24.95
2023-05-10T01:42:32.786Z,24.95
2023-05-10T01:42:42.821Z,24.95
2023-05-10T01:42:52.816Z,24.94
2023-05-10T01:43:02.808Z,24.94
2023-05-10T01:43:12.809Z,24.95
2023-05-10T01:43:22.826Z,24.94
2023-05-10T01:43:32.828Z,24.95
2023-05-10T01:43:42.844Z,24.94
2023-05-10T01:43:52.846Z,24.94
2023-05-10T01:44:02.967Z,24.94
2023-05-10T01:44:12.970Z,24.94
2023-05-10T01:44:22.974Z,24.93
2023-05-10T01:44:32.992Z,24.94
2023-05-10T01:44:42.994Z,24.94
2023-05-10T01:44:53.009Z,24.93
2023-05-10T01:45:03.297Z,24.93
2023-05-10T01:45:13.306Z,24.92
2023-05-10T01:45:23.426Z,24.92
2023-05-10T01:45:33.682Z,24.93
2023-05-10T01:45:43.695Z,24.93
2023-05-10T01:45:53.704Z,24.93
2023-05-10T01:46:03.712Z,24.92
2023-05-10T01:46:13.780Z,24.92
2023-05-10T01:46:23.857Z,24.92
2023-05-10T01:46:33.911Z,24.92
2023-05-10T01:46:43.958Z,24.92
2023-05-10T01:46:54.013Z,24.92
2023-05-10T01:47:04.107Z,24.92
2023-05-10T01:47:14.029Z,24.93
2023-05-10T01:47:24.032Z,24.92
2023-05-10T01:47:34.085Z,24.92
2023-05-10T01:47:44.090Z,24.92
2023-05-10T01:47:54.169Z,24.92
2023-05-10T01:48:04.196Z,24.92
2023-05-10T01:48:14.201Z,24.92
2023-05-10T01:48:24.216Z,24.92
2023-05-10T01:48:34.241Z,24.91
2023-05-10T01:48:44.250Z,24.92
2023-05-10T01:48:54.255Z,24.93
2023-05-10T01:49:04.260Z,24.92
2023-05-10T01:49:14.257Z,24.92
2023-05-10T01:49:24.385Z,24.92
2023-05-10T01:49:34.641Z,24.93
2023-05-10T01:49:44.642Z,24.92
2023-05-10T01:49:54.664Z,24.92
2023-05-10T01:50:04.653Z,24.93
2023-05-10T01:50:14.959Z,24.92
2023-05-10T01:50:24.681Z,24.92
2023-05-10T01:50:34.676Z,24.92
2023-05-10T01:50:44.805Z,24.92
2023-05-10T01:50:54.814Z,24.92
2023-05-10T01:51:04.935Z,24.92
2023-05-10T01:51:15.077Z,24.92
2023-05-10T01:51:25.082Z,24.92
2023-05-10T01:51:35.081Z,24.92
2023-05-10T01:51:45.085Z,24.92
2023-05-10T01:51:55.087Z,24.92
2023-05-10T01:52:05.112Z,24.92
2023-05-10T01:52:15.123Z,24.92
2023-05-10T01:52:25.128Z,24.92
2023-05-10T01:52:35.131Z,24.93
2023-05-10T01:52:45.138Z,24.92
2023-05-10T01:52:55.134Z,24.92
2023-05-10T01:53:05.141Z,24.92
2023-05-10T01:53:15.143Z,24.92
2023-05-10T01:53:25.261Z,24.91
2023-05-10T01:53:35.273Z,24.90
2023-05-10T01:53:45.308Z,24.92
2023-05-10T01:53:55.306Z,24.91
2023-05-10T01:54:05.554Z,24.91
2023-05-10T01:54:15.573Z,24.92
2023-05-10T01:54:25.585Z,24.91
2023-05-10T01:54:35.586Z,24.91
2023-05-10T01:54:45.593Z,24.92
2023-05-10T01:54:55.603Z,24.91
2023-05-10T01:55:05.626Z,24.92
2023-05-10T01:55:15.652Z,24.90
2023-05-10T01:55:25.630Z,24.90
2023-05-10T01:55:35.634Z,24.90
2023-05-10T01:55:46.025Z,24.90
2023-05-10T01:55:56.011Z,24.90
2023-05-10T01:56:06.141Z,24.90
2023-05-10T01:56:16.389Z,24.90
2023-05-10T01:56:26.411Z,24.90
2023-05-10T01:56:36.411Z,24.90
2023-05-10T01:56:46.409Z,24.91
2023-05-10T01:56:56.422Z,24.90
2023-05-10T01:57:06.427Z,24.89
2023-05-10T01:57:16.437Z,24.90
2023-05-10T01:57:26.461Z,24.90
2023-05-10T01:57:36.464Z,24.89
2023-05-10T01:57:46.497Z,24.90
2023-05-10T01:57:56.472Z,24.90
2023-05-10T01:58:06.612Z,24.90
2023-05-10T01:58:16.610Z,24.89
2023-05-10T01:58:26.606Z,24.89
2023-05-10T01:58:36.621Z,24.89
2023-05-10T01:58:46.623Z,24.89
2023-05-10T01:58:56.635Z,24.89
2023-05-10T01:59:06.898Z,24.89
2023-05-10T01:59:16.919Z,24.89
2023-05-10T01:59:26.920Z,24.89
2023-05-10T01:59:36.917Z,24.89
2023-05-10T01:59:46.920Z,24.89
2023-05-10T01:59:56.942Z,24.89
2023-05-10T02:00:06.940Z,24.89
2023-05-10T02:00:17.159Z,24.89
2023-05-10T02:00:26.976Z,24.88
2023-05-10T02:00:37.061Z,24.89
2023-05-10T02:00:47.108Z,24.89
2023-05-10T02:00:57.219Z,24.88
2023-05-10T02:01:07.254Z,24.89
2023-05-10T02:01:17.296Z,24.88
2023-05-10T02:01:27.320Z,24.89
2023-05-10T02:01:37.352Z,24.88
2023-05-10T02:01:47.336Z,24.88
2023-05-10T02:01:57.619Z,24.88
2023-05-10T02:02:07.728Z,24.88
2023-05-10T02:02:17.727Z,24.87
2023-05-10T02:02:28.036Z,24.88
2023-05-10T02:02:38.081Z,24.88
2023-05-10T02:02:48.147Z,24.87
2023-05-10T02:02:58.172Z,24.87
2023-05-10T02:03:08.309Z,24.87
2023-05-10T02:03:18.460Z,24.87
2023-05-10T02:03:28.456Z,24.87
2023-05-10T02:03:38.404Z,24.87
2023-05-10T02:03:48.426Z,24.87
2023-05-10T02:03:58.502Z,24.86
2023-05-10T02:04:08.844Z,24.86
2023-05-10T02:04:18.785Z,24.86
2023-05-10T02:04:28.810Z,24.86
2023-05-10T02:04:38.826Z,24.87
2023-05-10T02:04:48.816Z,24.86
2023-05-10T02:04:58.821Z,24.87
2023-05-10T02:05:08.839Z,24.86
2023-05-10T02:05:18.876Z,24.87
2023-05-10T02:05:28.879Z,24.86
2023-05-10T02:05:38.865Z,24.87
2023-05-10T02:05:48.873Z,24.87
2023-05-10T02:05:58.888Z,24.86
2023-05-10T02:06:09.002Z,24.86
2023-05-10T02:06:18.999Z,24.87
2023-05-10T02:06:29.012Z,24.87
2023-05-10T02:06:39.018Z,24.87
2023-05-10T02:06:49.032Z,24.86
2023-05-10T02:06:59.300Z,24.86
2023-05-10T02:07:09.379Z,24.86
2023-05-10T02:07:19.392Z,24.86
2023-05-10T02:07:29.390Z,24.86
2023-05-10T02:07:39.403Z,24.85
2023-05-10T02:07:49.520Z,24.85
2023-05-10T02:07:59.523Z,24.86
2023-05-10T02:08:09.532Z,24.86
2023-05-10T02:08:19.534Z,24.85
2023-05-10T02:08:29.672Z,24.85
2023-05-10T02:08:39.807Z,24.85
2023-05-10T02:08:49.815Z,24.85
2023-05-10T02:08:59.816Z,24.85
2023-05-10T02:09:10.195Z,24.84
2023-05-10T02:09:20.191Z,24.85
2023-05-10T02:09:30.314Z,24.84
2023-05-10T02:09:40.581Z,24.83